Main page
METAR-TAF:

METAR-TAF

Airports :

Zahedan, Iran

Zahedan Airport

latitude: 29-28N, longitude: 060-53E, elevation: 1370 m

Current weather observation

The report was made 25 minutes ago, at 07:00 UTC
Wind 8 kt from the North/Northeast
Temperature 30°C
Humidity 11%
Pressure 1014 hPa
Visibility 10 km or more
no clouds below 1500 m and no cumulonimbus

METAR: OIZH 190700Z 02008KT CAVOK 30/M04 Q1014 A2995 NOSIG

Time: 11:55 (07:25 UTC)

Forecast

The report was made 2 hours and 25 minutes ago, at 05:00 UTC
Forecast valid from 19 at 06 UTC to 20 at 12 UTC
Wind 10 kt from the North
Visibility: 8000 m
Temporary
from 19 at 15 UTC to 19 at 21 UTC
Wind 16 kt from the North/Northeast with gusts up to 23 kt

TAF: OIZH 190500Z 1906/2012 35005MPS 8000 NSC TEMPO 1915/1921 02008G12MPS

Weather observations and forecasts of more than 4000 airports (METAR and TAF reports).

The available stations are represented by yellow and red dots on the map.

Hover mouse over dot to see the name of the station.

Then click to see weather observations and forecasts.

To change the map : click on the green buttons with a black cross to zoom in, on the green button with a dash to zoom out, or on the green arrows for adjacent maps.


METAR-TAF: